Time;durP1;ratioP1;P1;durP2;ratioP2;P2;SDS_P1;SDS_P2;PMS_P1;PMS_P2;Temp;Humidity;BMP_temperature;BMP_pressure;BME280_temperature;BME280_humidity;BME280_pressure;Samples;Min_cycle;Max_cycle;Signal;HPM_P1;HPM_P2
2021/07/25 00:01:14;;;;;;;4.25;2.67;;;15.10;99.90;;;;;;4364733;32;20081;-71
2021/07/25 00:03:40;;;;;;;3.95;2.58;;;15.10;99.90;;;;;;4364666;32;20082;-71
2021/07/25 00:06:06;;;;;;;2.55;2.20;;;15.10;99.90;;;;;;4377204;32;20082;-72
2021/07/25 00:08:32;;;;;;;4.82;2.50;;;15.00;99.90;;;;;;4352022;32;20437;-71
2021/07/25 00:10:58;;;;;;;3.53;2.45;;;15.20;99.90;;;;;;4377093;32;20579;-71
2021/07/25 00:13:24;;;;;;;4.55;2.65;;;15.20;99.90;;;;;;4376593;32;20154;-70
2021/07/25 00:15:50;;;;;;;3.60;2.28;;;15.10;99.90;;;;;;4376555;32;20156;-71
2021/07/25 00:18:17;;;;;;;5.18;2.58;;;15.10;99.90;;;;;;4352077;32;20089;-71
2021/07/25 00:20:43;;;;;;;3.72;2.47;;;15.10;99.90;;;;;;4377978;32;20100;-71
2021/07/25 00:23:17;;;;;;;4.72;2.42;;;15.10;99.90;;;;;;4352096;32;20086;-71
2021/07/25 00:25:43;;;;;;;3.40;2.30;;;15.10;99.90;;;;;;4365049;32;20074;-71
2021/07/25 00:28:14;;;;;;;3.92;2.72;;;15.10;99.90;;;;;;4376770;32;20500;-70
2021/07/25 00:30:40;;;;;;;5.65;2.45;;;15.10;99.90;;;;;;4376653;32;20563;-71
2021/07/25 00:33:06;;;;;;;5.10;2.95;;;15.10;99.90;;;;;;4352036;32;20081;-71
2021/07/25 00:35:33;;;;;;;3.72;2.30;;;15.00;99.90;;;;;;4364309;32;20156;-71
2021/07/25 00:38:00;;;;;;;6.07;2.55;;;14.90;99.90;;;;;;4351668;32;20085;-71
2021/07/25 00:40:38;;;;;;;3.97;2.20;;;14.90;99.90;;;;;;4363866;32;20520;-71
2021/07/25 00:43:04;;;;;;;4.00;2.40;;;14.90;99.90;;;;;;4364035;32;20157;-71
2021/07/25 00:48:10;;;;;;;3.37;2.35;;;14.90;99.90;;;;;;3812497;37;20047;-71
2021/07/25 00:50:36;;;;;;;3.17;2.30;;;14.90;99.90;;;;;;4378318;32;20068;-71
2021/07/25 00:53:02;;;;;;;3.75;2.50;;;14.90;99.90;;;;;;4353482;32;20073;-71
2021/07/25 00:55:29;;;;;;;4.50;2.50;;;14.90;99.90;;;;;;4365604;32;20076;-71
2021/07/25 01:00:30;;;;;;;6.32;2.62;;;14.90;99.90;;;;;;3833895;37;20055;-70
2021/07/25 01:03:22;;;;;;;5.10;2.70;;;14.80;99.90;;;;;;4366276;32;20066;-71
2021/07/25 01:06:19;;;;;;;5.55;2.55;;;14.90;99.90;;;;;;4390153;32;20499;-72
2021/07/25 01:09:30;;;;;;;6.03;2.60;;;14.90;99.90;;;;;;4404833;32;20074;-71
2021/07/25 01:11:58;;;;;;;6.93;2.60;;;14.90;99.90;;;;;;4380605;32;20140;-70
2021/07/25 01:14:29;;;;;;;3.45;2.00;;;14.90;99.90;;;;;;4353111;32;20070;-71
2021/07/25 01:17:27;;;;;;;4.05;2.28;;;14.90;99.90;;;;;;4366116;32;20077;-71
2021/07/25 01:20:01;;;;;;;3.47;2.60;;;14.90;99.90;;;;;;4353766;32;20498;-71
2021/07/25 01:22:29;;;;;;;5.22;2.83;;;14.90;99.90;;;;;;4378050;32;20515;-72
2021/07/25 01:24:55;;;;;;;4.30;2.53;;;14.80;99.90;;;;;;4352742;32;20070;-70
2021/07/25 01:27:50;;;;;;;4.22;2.75;;;14.80;99.90;;;;;;4353255;32;20110;-71
2021/07/25 01:30:22;;;;;;;4.32;2.70;;;14.90;99.90;;;;;;4392172;32;20192;-71
2021/07/25 01:32:58;;;;;;;4.93;3.17;;;14.90;99.90;;;;;;4365272;32;20070;-70
2021/07/25 01:35:25;;;;;;;8.05;2.47;;;14.90;99.90;;;;;;4354528;32;20078;-71
2021/07/25 01:37:51;;;;;;;4.18;2.50;;;14.90;99.90;;;;;;4365272;32;20153;-71
2021/07/25 01:40:24;;;;;;;6.03;2.95;;;14.90;99.90;;;;;;4365065;32;20468;-70
2021/07/25 01:42:54;;;;;;;4.75;2.53;;;14.90;99.90;;;;;;4365901;32;20073;-70
2021/07/25 01:45:20;;;;;;;3.87;2.53;;;14.90;99.90;;;;;;4350870;32;20077;-72
2021/07/25 01:47:46;;;;;;;4.72;2.40;;;15.10;99.90;;;;;;4362535;32;20186;-70
2021/07/25 01:50:13;;;;;;;6.53;2.90;;;15.10;99.90;;;;;;4362769;32;20177;-71
2021/07/25 01:52:40;;;;;;;4.28;2.87;;;15.10;99.90;;;;;;4362670;32;20663;-70
2021/07/25 01:55:06;;;;;;;5.10;3.17;;;15.10;99.90;;;;;;4349627;32;20471;-71
2021/07/25 01:57:33;;;;;;;5.95;3.08;;;15.00;99.90;;;;;;4350265;32;20073;-71
2021/07/25 01:59:59;;;;;;;4.32;2.67;;;14.90;99.90;;;;;;4361797;32;20529;-72
2021/07/25 02:02:25;;;;;;;3.97;2.58;;;14.90;99.90;;;;;;4361992;32;20575;-70
2021/07/25 02:04:51;;;;;;;3.70;2.47;;;14.90;99.90;;;;;;4374543;32;20065;-71
2021/07/25 02:07:17;;;;;;;3.33;2.47;;;15.00;99.90;;;;;;4350119;32;20082;-71
2021/07/25 02:09:44;;;;;;;2.55;2.17;;;15.00;99.90;;;;;;4373678;32;20081;-71
2021/07/25 02:12:11;;;;;;;3.65;2.15;;;15.10;99.90;;;;;;4364811;32;20492;-71
2021/07/25 02:14:38;;;;;;;6.15;2.30;;;15.10;99.90;;;;;;4352152;32;20085;-70
2021/07/25 02:17:05;;;;;;;4.28;2.40;;;15.20;99.90;;;;;;4352292;32;20445;-70
2021/07/25 02:19:31;;;;;;;3.35;2.17;;;15.30;99.90;;;;;;4340143;32;20070;-70
2021/07/25 02:21:58;;;;;;;5.78;2.40;;;15.30;99.90;;;;;;4339933;32;20154;-71
2021/07/25 02:24:24;;;;;;;4.53;2.70;;;15.30;99.90;;;;;;4364483;32;20066;-70
2021/07/25 02:26:51;;;;;;;5.25;2.40;;;15.30;99.90;;;;;;4364743;32;20070;-70
2021/07/25 02:29:17;;;;;;;4.55;3.03;;;15.30;99.90;;;;;;4352375;32;20076;-72
2021/07/25 02:31:43;;;;;;;4.28;2.67;;;15.30;99.90;;;;;;4340615;32;20074;-71
2021/07/25 02:34:09;;;;;;;3.87;2.70;;;15.40;99.90;;;;;;4352586;32;20109;-70
2021/07/25 02:36:36;;;;;;;5.32;2.67;;;15.30;99.90;;;;;;4364336;32;20113;-70
2021/07/25 02:39:02;;;;;;;3.60;2.50;;;15.40;99.90;;;;;;4339794;32;20178;-70
2021/07/25 02:41:29;;;;;;;5.37;2.33;;;15.40;99.90;;;;;;4339956;32;20111;-70
2021/07/25 02:43:55;;;;;;;4.72;2.33;;;15.40;99.90;;;;;;4351671;32;20150;-71
2021/07/25 02:46:21;;;;;;;3.28;2.53;;;15.50;99.90;;;;;;4351958;32;20161;-71
2021/07/25 02:48:47;;;;;;;5.25;2.33;;;15.60;99.90;;;;;;4351528;32;20601;-70
2021/07/25 02:51:13;;;;;;;2.62;1.98;;;15.50;99.90;;;;;;4351651;32;20101;-71
2021/07/25 02:53:40;;;;;;;3.85;2.35;;;15.70;99.90;;;;;;4351932;32;20526;-70
2021/07/25 02:56:06;;;;;;;2.80;1.80;;;15.70;99.90;;;;;;4363864;32;20094;-71
2021/07/25 02:58:32;;;;;;;3.35;2.05;;;15.80;99.90;;;;;;4351006;32;20104;-71
2021/07/25 03:00:58;;;;;;;3.65;1.87;;;15.90;99.90;;;;;;4351412;32;20508;-71
2021/07/25 03:03:24;;;;;;;2.42;1.80;;;15.70;99.90;;;;;;4339880;32;20074;-71
2021/07/25 03:05:50;;;;;;;3.92;2.15;;;15.60;99.90;;;;;;4364154;32;20441;-71
2021/07/25 03:08:16;;;;;;;3.65;2.17;;;15.60;99.90;;;;;;4364217;32;20086;-71
2021/07/25 03:10:43;;;;;;;2.45;2.05;;;15.70;99.90;;;;;;4339164;32;20459;-71
2021/07/25 03:13:09;;;;;;;3.33;2.10;;;15.70;99.90;;;;;;4351528;32;20605;-71
2021/07/25 03:15:35;;;;;;;4.30;2.03;;;15.70;99.90;;;;;;4363862;32;20082;-71
2021/07/25 03:18:01;;;;;;;3.97;2.40;;;15.80;99.90;;;;;;4351165;32;20085;-71
2021/07/25 03:20:27;;;;;;;3.22;1.83;;;16.00;99.90;;;;;;4351371;32;20077;-70
2021/07/25 03:22:53;;;;;;;4.18;2.05;;;16.00;99.90;;;;;;4363034;32;20493;-71
2021/07/25 03:25:20;;;;;;;3.30;2.12;;;16.20;99.90;;;;;;4339209;32;20074;-72
2021/07/25 03:27:46;;;;;;;2.65;1.87;;;16.20;99.90;;;;;;4363580;32;20081;-70
2021/07/25 03:30:13;;;;;;;2.40;1.90;;;16.30;99.90;;;;;;4351353;32;20070;-71
2021/07/25 03:32:39;;;;;;;3.00;2.10;;;16.40;99.90;;;;;;4363688;32;20081;-71
2021/07/25 03:35:05;;;;;;;1.70;1.50;;;16.50;99.90;;;;;;4363382;32;20066;-71
2021/07/25 03:37:31;;;;;;;2.55;1.83;;;16.70;99.90;;;;;;4350807;32;20093;-71
2021/07/25 03:39:58;;;;;;;2.58;2.00;;;16.70;99.90;;;;;;4363100;32;20077;-71
2021/07/25 03:42:24;;;;;;;3.58;1.95;;;16.80;99.90;;;;;;4350942;32;20084;-70
2021/07/25 03:44:50;;;;;;;2.15;1.90;;;16.90;99.90;;;;;;4351105;32;20172;-70
2021/07/25 03:47:17;;;;;;;2.33;1.80;;;16.90;99.90;;;;;;4339065;32;20101;-71
2021/07/25 03:49:43;;;;;;;2.92;2.10;;;17.00;99.90;;;;;;4350649;32;20609;-71
2021/07/25 03:52:11;;;;;;;3.72;1.87;;;17.00;99.90;;;;;;4351020;32;20484;-71
2021/07/25 03:54:42;;;;;;;7.20;2.05;;;17.10;99.90;;;;;;4363184;32;20079;-71
2021/07/25 03:57:09;;;;;;;1.83;1.70;;;17.10;99.90;;;;;;4338937;32;20074;-70
2021/07/25 03:59:36;;;;;;;3.85;2.05;;;17.20;99.90;;;;;;4350828;32;20097;-71
2021/07/25 04:02:03;;;;;;;2.05;1.85;;;17.30;99.90;;;;;;4351121;32;20070;-70
2021/07/25 04:04:30;;;;;;;2.00;1.80;;;17.30;99.90;;;;;;4363195;32;20512;-70
2021/07/25 04:06:56;;;;;;;1.60;1.50;;;17.30;99.90;;;;;;4350538;32;20074;-71
2021/07/25 04:09:23;;;;;;;1.80;1.58;;;17.50;99.90;;;;;;4338593;32;20154;-70
2021/07/25 04:11:53;;;;;;;1.62;1.52;;;17.60;99.90;;;;;;4351214;32;20199;-71
2021/07/25 04:14:19;;;;;;;2.78;1.70;;;17.70;99.90;;;;;;4351101;32;20074;-71
2021/07/25 04:16:45;;;;;;;1.60;1.50;;;17.60;99.90;;;;;;4362952;32;20078;-71
2021/07/25 04:19:11;;;;;;;2.05;1.73;;;17.70;99.90;;;;;;4350429;32;20082;-71
2021/07/25 04:21:37;;;;;;;2.03;1.83;;;17.90;99.90;;;;;;4362612;32;20456;-70
2021/07/25 04:24:04;;;;;;;1.92;1.77;;;17.90;99.90;;;;;;4377022;32;20150;-71
2021/07/25 04:26:30;;;;;;;2.25;1.90;;;17.90;99.90;;;;;;4350438;32;20078;-71
2021/07/25 04:28:57;;;;;;;1.70;1.60;;;18.00;99.90;;;;;;4338106;32;20157;-70
2021/07/25 04:31:24;;;;;;;3.47;2.03;;;18.00;99.90;;;;;;4338123;32;20110;-70
2021/07/25 04:33:53;;;;;;;3.60;2.10;;;18.30;99.90;;;;;;4362626;32;20084;-70
2021/07/25 04:36:26;;;;;;;4.35;1.90;;;18.30;99.90;;;;;;4350410;32;20451;-71
2021/07/25 04:38:57;;;;;;;2.35;1.80;;;18.50;99.90;;;;;;4363804;32;20088;-71
2021/07/25 04:41:25;;;;;;;2.75;1.40;;;19.00;99.90;;;;;;4350864;32;20460;-71
2021/07/25 04:44:30;;;;;;;1.52;1.42;;;20.60;93.30;;;;;;4338404;32;20074;-70
2021/07/25 04:47:02;;;;;;;3.28;1.73;;;20.90;87.70;;;;;;4366086;32;20082;-71
2021/07/25 04:49:45;;;;;;;1.87;1.77;;;21.40;77.70;;;;;;4339482;32;20077;-71
2021/07/25 04:52:11;;;;;;;1.60;1.50;;;22.00;72.90;;;;;;4351065;32;20583;-71
2021/07/25 04:54:39;;;;;;;2.80;1.70;;;22.20;68.30;;;;;;4362515;32;20074;-71
2021/07/25 04:57:06;;;;;;;7.75;2.62;;;22.20;61.80;;;;;;4362949;32;20080;-71
2021/07/25 04:59:39;;;;;;;2.33;1.50;;;22.10;58.00;;;;;;4349924;32;20093;-71
2021/07/25 05:02:07;;;;;;;2.85;1.15;;;21.60;58.50;;;;;;4350492;32;20090;-70
2021/07/25 05:04:34;;;;;;;1.55;1.02;;;22.00;57.10;;;;;;4350657;32;20504;-71
2021/07/25 05:07:01;;;;;;;1.40;1.17;;;21.80;52.60;;;;;;4337828;32;20178;-70
2021/07/25 05:09:27;;;;;;;3.95;1.27;;;22.00;50.40;;;;;;4337976;32;20089;-69
2021/07/25 05:12:12;;;;;;;4.05;1.10;;;22.00;50.00;;;;;;4337566;32;20086;-70
2021/07/25 05:15:01;;;;;;;2.92;1.12;;;22.10;47.50;;;;;;4350226;32;20063;-71
2021/07/25 05:17:46;;;;;;;1.10;1.00;;;22.50;47.90;;;;;;4362572;32;20243;-71
2021/07/25 05:20:15;;;;;;;0.80;0.80;;;22.20;46.60;;;;;;4361966;32;20085;-71
2021/07/25 05:23:03;;;;;;;1.20;1.10;;;22.10;46.30;;;;;;4338357;32;20086;-70
2021/07/25 05:25:31;;;;;;;2.53;1.23;;;21.90;47.40;;;;;;4350251;32;20086;-71
2021/07/25 05:28:00;;;;;;;1.70;1.10;;;23.00;46.20;;;;;;4337828;32;20081;-71
2021/07/25 05:30:27;;;;;;;1.85;0.90;;;22.40;44.90;;;;;;4337822;32;20089;-72
2021/07/25 05:32:55;;;;;;;1.50;1.23;;;23.00;44.30;;;;;;4349944;32;20078;-69
2021/07/25 05:35:21;;;;;;;1.30;1.20;;;22.40;43.40;;;;;;4362759;32;20512;-70
2021/07/25 05:37:47;;;;;;;2.25;1.10;;;22.60;44.10;;;;;;4350065;32;20500;-71
2021/07/25 05:40:14;;;;;;;2.72;0.98;;;23.70;42.60;;;;;;4376058;32;20077;-71
2021/07/25 05:42:41;;;;;;;1.37;1.27;;;23.70;38.10;;;;;;4362669;32;20066;-70
2021/07/25 05:45:08;;;;;;;1.17;1.08;;;23.50;40.30;;;;;;4349680;32;20078;-70
2021/07/25 05:47:36;;;;;;;2.58;1.33;;;22.90;41.10;;;;;;4353269;32;20223;-71
2021/07/25 05:50:03;;;;;;;2.35;1.10;;;22.80;41.60;;;;;;4352941;32;20078;-71
2021/07/25 05:52:54;;;;;;;1.87;1.48;;;22.90;41.10;;;;;;4353064;32;20062;-70
2021/07/25 05:55:32;;;;;;;1.15;1.05;;;22.60;42.30;;;;;;4355259;32;20086;-69
2021/07/25 05:57:58;;;;;;;1.33;1.10;;;21.40;48.60;;;;;;4371672;32;20448;-70
2021/07/25 06:00:25;;;;;;;2.10;1.23;;;22.60;44.20;;;;;;4359009;32;20093;-71
2021/07/25 06:03:02;;;;;;;1.37;1.08;;;22.60;39.40;;;;;;4328972;32;20078;-70
2021/07/25 06:05:38;;;;;;;1.52;1.02;;;23.30;39.30;;;;;;4352580;32;20550;-69
2021/07/25 06:08:08;;;;;;;;;;;23.70;36.20;;;;;;4354544;32;20102;-70
2021/07/25 06:10:40;;;;;;;1.77;1.30;;;22.70;37.80;;;;;;4365002;32;19977;-70
2021/07/25 06:13:06;;;;;;;1.00;0.90;;;22.50;37.40;;;;;;4354134;32;20537;-70
2021/07/25 06:15:33;;;;;;;0.90;0.90;;;23.10;38.20;;;;;;4344717;32;20116;-71
2021/07/25 06:18:03;;;;;;;1.77;0.90;;;23.30;35.20;;;;;;4353157;32;20489;-65
2021/07/25 06:20:30;;;;;;;1.20;1.10;;;22.30;36.70;;;;;;4365271;32;20509;-67
2021/07/25 06:22:57;;;;;;;1.37;1.27;;;21.30;40.80;;;;;;4340060;32;20451;-66
2021/07/25 06:25:27;;;;;;;1.20;1.10;;;22.20;41.50;;;;;;4340551;32;20090;-65
2021/07/25 06:27:55;;;;;;;1.35;1.25;;;23.00;37.50;;;;;;4352348;32;20094;-65
2021/07/25 06:30:23;;;;;;;2.25;0.95;;;22.30;38.90;;;;;;4352154;32;20078;-66
2021/07/25 06:33:08;;;;;;;0.80;0.80;;;22.40;41.30;;;;;;4352021;32;20066;-64
2021/07/25 06:35:37;;;;;;;3.67;1.10;;;22.30;40.90;;;;;;4352169;32;20081;-64
2021/07/25 06:38:05;;;;;;;2.70;1.30;;;21.40;41.60;;;;;;4340504;32;20078;-65
2021/07/25 06:40:32;;;;;;;2.15;1.10;;;21.70;41.60;;;;;;4352852;32;20080;-64
2021/07/25 06:42:59;;;;;;;1.20;1.10;;;21.50;40.30;;;;;;4352412;32;20070;-65
2021/07/25 06:45:25;;;;;;;1.75;1.20;;;21.80;40.80;;;;;;4352205;32;20082;-64
2021/07/25 06:47:52;;;;;;;1.10;1.00;;;21.90;41.60;;;;;;4339829;32;20097;-64
2021/07/25 06:50:24;;;;;;;1.15;1.05;;;21.70;41.10;;;;;;4340400;32;20074;-65
2021/07/25 06:52:51;;;;;;;0.93;0.82;;;21.80;41.70;;;;;;4343555;32;20511;-64
2021/07/25 06:55:19;;;;;;;3.25;1.05;;;22.10;40.40;;;;;;4342797;32;20085;-65
2021/07/25 06:57:46;;;;;;;1.30;1.02;;;21.80;39.20;;;;;;4351980;32;20135;-65
2021/07/25 07:00:13;;;;;;;1.33;0.93;;;21.80;38.00;;;;;;4339042;32;20082;-63
2021/07/25 07:02:56;;;;;;;2.42;0.93;;;21.40;39.60;;;;;;4339452;32;20089;-64
2021/07/25 07:05:27;;;;;;;1.35;1.17;;;22.10;39.30;;;;;;4352203;32;20101;-65
2021/07/25 07:07:56;;;;;;;2.42;1.10;;;21.70;40.10;;;;;;4351823;32;20086;-65
2021/07/25 07:10:25;;;;;;;1.27;1.10;;;22.00;39.70;;;;;;4351984;32;20066;-65
2021/07/25 07:12:52;;;;;;;2.17;0.90;;;22.00;39.90;;;;;;4340569;32;20086;-65
2021/07/25 07:15:20;;;;;;;1.98;1.23;;;21.70;41.00;;;;;;4352580;32;20071;-66
2021/07/25 07:17:49;;;;;;;1.00;0.90;;;22.20;39.70;;;;;;4351315;32;20507;-65
2021/07/25 07:20:15;;;;;;;4.00;1.00;;;22.10;37.30;;;;;;4351452;32;20066;-67
2021/07/25 07:22:41;;;;;;;2.65;0.82;;;22.60;38.40;;;;;;4339256;32;20086;-68
2021/07/25 07:25:08;;;;;;;2.33;0.85;;;22.20;39.90;;;;;;4338568;32;20471;-69
2021/07/25 07:27:35;;;;;;;1.42;0.88;;;21.70;39.10;;;;;;4351570;32;20100;-69
2021/07/25 07:30:02;;;;;;;1.80;1.25;;;22.10;38.60;;;;;;4338876;32;20097;-68
2021/07/25 07:32:29;;;;;;;1.00;1.00;;;22.60;37.90;;;;;;4351030;32;20092;-69
2021/07/25 07:34:55;;;;;;;3.20;1.30;;;22.10;38.10;;;;;;4377260;32;20086;-71
2021/07/25 07:37:21;;;;;;;1.30;1.00;;;22.40;38.20;;;;;;4351291;32;20077;-68
2021/07/25 07:39:47;;;;;;;1.80;1.17;;;22.80;36.70;;;;;;4376906;32;20077;-69
2021/07/25 07:42:13;;;;;;;2.03;1.02;;;21.70;39.10;;;;;;4363124;32;20086;-70
2021/07/25 07:44:40;;;;;;;11.02;1.37;;;21.80;40.40;;;;;;4364310;32;20165;-67
2021/07/25 07:47:06;;;;;;;3.03;1.20;;;22.00;39.40;;;;;;4353013;32;20061;-69
2021/07/25 07:49:32;;;;;;;1.10;1.00;;;22.20;39.30;;;;;;4339094;32;20096;-68
2021/07/25 07:51:58;;;;;;;1.37;0.93;;;22.50;36.80;;;;;;4376981;32;20452;-69
2021/07/25 07:54:24;;;;;;;1.02;0.90;;;23.40;37.30;;;;;;4338756;32;20905;-70
2021/07/25 07:56:51;;;;;;;1.15;1.05;;;22.70;37.00;;;;;;4338724;32;20070;-69
2021/07/25 07:59:17;;;;;;;1.15;1.00;;;22.10;38.30;;;;;;4376618;32;20077;-69
2021/07/25 08:01:44;;;;;;;2.97;1.42;;;21.90;37.50;;;;;;4363227;32;20224;-69
2021/07/25 08:04:10;;;;;;;1.10;1.00;;;22.30;38.50;;;;;;4351417;32;20507;-69
2021/07/25 08:06:36;;;;;;;1.30;1.20;;;22.10;37.40;;;;;;4338575;32;20088;-71
2021/07/25 08:09:03;;;;;;;0.95;0.88;;;22.20;38.60;;;;;;4350137;32;20433;-69
2021/07/25 08:11:29;;;;;;;1.00;0.98;;;22.20;38.70;;;;;;4362756;32;20445;-69
2021/07/25 08:13:55;;;;;;;2.72;1.52;;;22.20;38.80;;;;;;4350404;32;20523;-69
2021/07/25 08:16:21;;;;;;;1.62;1.52;;;22.90;38.10;;;;;;4338530;32;20162;-68
2021/07/25 08:18:47;;;;;;;1.30;1.20;;;22.80;35.60;;;;;;4339142;32;20496;-68
2021/07/25 08:21:13;;;;;;;1.05;0.90;;;22.50;36.90;;;;;;4338925;32;20154;-68
2021/07/25 08:23:40;;;;;;;2.28;1.02;;;22.40;36.10;;;;;;4350799;32;20074;-69
2021/07/25 08:26:06;;;;;;;2.70;1.10;;;22.50;35.20;;;;;;4338339;32;20101;-68
2021/07/25 08:28:32;;;;;;;0.80;0.80;;;23.00;36.10;;;;;;4376554;32;20078;-67
2021/07/25 08:30:59;;;;;;;1.00;1.00;;;22.30;35.80;;;;;;4350251;32;20520;-69
2021/07/25 08:33:26;;;;;;;1.52;1.10;;;22.10;36.20;;;;;;4350093;32;20074;-68
2021/07/25 08:35:52;;;;;;;3.20;1.30;;;21.70;37.30;;;;;;4362369;32;20089;-69
2021/07/25 08:38:18;;;;;;;0.90;0.90;;;21.80;36.70;;;;;;4338091;32;20162;-68
2021/07/25 08:41:08;;;;;;;1.12;1.02;;;21.90;37.70;;;;;;4338209;32;20070;-69
2021/07/25 08:43:38;;;;;;;1.65;1.45;;;22.40;37.00;;;;;;4340722;32;20081;-68
2021/07/25 08:46:15;;;;;;;2.15;1.23;;;22.50;36.70;;;;;;4338180;32;20078;-68
2021/07/25 08:48:52;;;;;;;1.95;0.80;;;23.00;36.00;;;;;;4351185;32;20194;-68
2021/07/25 08:51:23;;;;;;;0.80;0.80;;;23.00;36.80;;;;;;4351096;32;20103;-68
2021/07/25 08:54:04;;;;;;;1.75;1.20;;;23.50;35.80;;;;;;4357849;32;20081;-68
2021/07/25 08:56:32;;;;;;;1.50;1.23;;;22.50;36.60;;;;;;4334671;32;20085;-68
2021/07/25 08:59:01;;;;;;;1.10;1.00;;;22.20;37.10;;;;;;4338125;32;20457;-68
2021/07/25 09:01:46;;;;;;;1.85;1.33;;;22.40;36.70;;;;;;4351804;32;20086;-68
2021/07/25 09:04:12;;;;;;;1.75;1.08;;;22.40;36.90;;;;;;4350303;32;20431;-68
2021/07/25 09:06:48;;;;;;;2.12;1.30;;;22.60;36.40;;;;;;4350516;32;20081;-68
2021/07/25 09:09:17;;;;;;;1.23;1.10;;;23.70;35.20;;;;;;4350820;32;20098;-67
2021/07/25 09:11:44;;;;;;;1.33;1.00;;;23.80;33.90;;;;;;4339472;32;20150;-67
2021/07/25 09:14:10;;;;;;;1.45;1.15;;;23.00;34.30;;;;;;4351104;32;20074;-68
2021/07/25 09:16:36;;;;;;;1.35;1.10;;;22.80;35.50;;;;;;4350285;32;20078;-68
2021/07/25 09:19:03;;;;;;;1.52;1.10;;;23.00;35.40;;;;;;4342875;32;20085;-70
2021/07/25 09:21:41;;;;;;;1.23;1.12;;;22.50;37.00;;;;;;4345357;32;20070;-69
2021/07/25 09:24:31;;;;;;;1.30;1.15;;;22.50;37.10;;;;;;4341941;32;20510;-68
2021/07/25 09:27:05;;;;;;;1.92;1.42;;;22.00;37.60;;;;;;4353120;32;20177;-68
2021/07/25 09:29:36;;;;;;;2.08;1.12;;;22.80;35.80;;;;;;4341100;32;20070;-69
2021/07/25 09:32:16;;;;;;;1.30;1.10;;;22.60;35.40;;;;;;4352779;32;20084;-70
2021/07/25 09:34:49;;;;;;;1.55;1.02;;;23.30;33.90;;;;;;4353317;32;20085;-70
2021/07/25 09:37:21;;;;;;;4.20;1.15;;;24.20;33.20;;;;;;4340517;32;20089;-69
2021/07/25 09:39:55;;;;;;;1.62;0.80;;;23.30;34.40;;;;;;4340680;32;20078;-69
2021/07/25 09:42:31;;;;;;;2.33;1.65;;;23.30;34.60;;;;;;4328553;32;20104;-69
2021/07/25 09:44:59;;;;;;;2.00;1.12;;;23.20;34.80;;;;;;4340372;32;20086;-70
2021/07/25 09:47:33;;;;;;;2.60;1.40;;;23.50;34.80;;;;;;4352772;32;20459;-70
2021/07/25 09:50:01;;;;;;;1.40;1.17;;;24.20;33.40;;;;;;4352669;32;20155;-69
2021/07/25 09:52:32;;;;;;;2.30;0.95;;;23.80;34.20;;;;;;4352563;32;20135;-70
2021/07/25 09:55:00;;;;;;;1.60;1.30;;;23.60;32.30;;;;;;4352686;32;20074;-71
2021/07/25 09:57:27;;;;;;;2.25;1.52;;;23.60;32.20;;;;;;4352627;32;20085;-69
2021/07/25 09:59:54;;;;;;;3.53;1.62;;;23.90;32.70;;;;;;4334769;33;20184;-71
2021/07/25 10:02:45;;;;;;;1.95;1.25;;;23.80;34.20;;;;;;4335013;33;20166;-70
2021/07/25 10:05:16;;;;;;;1.95;1.52;;;23.20;35.80;;;;;;4325365;33;20075;-70
2021/07/25 10:07:47;;;;;;;1.27;1.15;;;23.30;35.20;;;;;;4323713;33;20148;-70
2021/07/25 10:10:18;;;;;;;1.70;1.10;;;23.70;33.80;;;;;;4323735;33;20579;-70
2021/07/25 10:12:46;;;;;;;2.47;1.20;;;23.40;32.60;;;;;;4323127;33;20127;-70
2021/07/25 10:15:14;;;;;;;1.02;0.90;;;23.40;32.90;;;;;;4323060;33;20094;-70
2021/07/25 10:17:43;;;;;;;2.58;1.45;;;23.30;33.00;;;;;;4334842;33;20472;-69
2021/07/25 10:20:11;;;;;;;1.35;1.25;;;23.60;32.70;;;;;;4322505;33;20523;-70
2021/07/25 10:22:38;;;;;;;1.17;1.10;;;23.50;32.60;;;;;;4334946;33;20070;-70
2021/07/25 10:25:07;;;;;;;2.22;1.15;;;23.70;30.70;;;;;;4322450;33;20087;-69
2021/07/25 10:27:35;;;;;;;3.60;1.12;;;23.60;31.00;;;;;;4322800;33;20167;-70
2021/07/25 10:30:11;;;;;;;1.85;1.25;;;24.00;31.70;;;;;;4346939;33;20067;-70
2021/07/25 10:32:39;;;;;;;1.10;1.10;;;23.70;31.20;;;;;;4334965;33;20177;-70
2021/07/25 10:35:07;;;;;;;1.23;1.10;;;24.40;31.10;;;;;;4322763;33;20537;-70
2021/07/25 10:37:37;;;;;;;2.08;1.20;;;23.80;33.00;;;;;;4322719;33;20102;-70
2021/07/25 10:40:04;;;;;;;5.30;1.25;;;23.60;32.40;;;;;;4322273;33;20170;-69
2021/07/25 10:42:34;;;;;;;2.35;1.30;;;24.30;32.10;;;;;;4322438;33;20075;-69
2021/07/25 10:45:00;;;;;;;2.05;1.05;;;23.90;31.80;;;;;;4322470;33;20081;-70
2021/07/25 10:47:32;;;;;;;1.40;1.27;;;23.60;32.70;;;;;;4346377;32;20071;-68
2021/07/25 10:50:08;;;;;;;1.33;1.10;;;24.20;31.90;;;;;;4334810;33;20175;-69
2021/07/25 10:52:50;;;;;;;1.17;1.08;;;24.20;32.10;;;;;;4310791;33;20187;-70
2021/07/25 10:55:35;;;;;;;1.95;1.10;;;23.70;32.30;;;;;;4334044;33;20505;-70
2021/07/25 10:58:06;;;;;;;1.85;1.17;;;24.00;31.50;;;;;;4346255;33;20090;-71
2021/07/25 11:00:55;;;;;;;1.55;1.35;;;25.10;30.80;;;;;;4311060;33;20078;-70
2021/07/25 11:03:30;;;;;;;1.75;1.45;;;23.70;31.20;;;;;;4322548;33;20071;-69
2021/07/25 11:06:17;;;;;;;2.35;1.10;;;23.60;31.30;;;;;;4334792;33;20082;-70
2021/07/25 11:08:46;;;;;;;2.03;1.23;;;23.70;32.00;;;;;;4334312;33;20475;-69
2021/07/25 11:11:34;;;;;;;2.22;1.10;;;24.50;31.50;;;;;;4334410;33;20083;-69
2021/07/25 11:14:04;;;;;;;1.20;1.10;;;24.40;31.20;;;;;;4347671;33;20098;-69
2021/07/25 11:16:30;;;;;;;1.25;0.88;;;23.70;31.30;;;;;;4334854;33;20087;-70
2021/07/25 11:19:16;;;;;;;4.30;1.40;;;23.20;32.40;;;;;;4347959;32;20162;-69
2021/07/25 11:21:50;;;;;;;2.70;1.48;;;22.90;32.70;;;;;;4316937;33;20086;-69
2021/07/25 11:24:19;;;;;;;2.37;1.15;;;23.00;32.40;;;;;;4346314;32;20533;-69
2021/07/25 11:27:03;;;;;;;1.48;1.02;;;23.90;31.50;;;;;;4346292;33;20094;-69
2021/07/25 11:29:33;;;;;;;1.75;1.33;;;24.60;30.30;;;;;;4334850;33;20086;-70
2021/07/25 11:32:00;;;;;;;2.05;1.08;;;24.60;30.40;;;;;;4346415;33;20486;-70
2021/07/25 11:34:33;;;;;;;1.52;1.37;;;24.50;29.80;;;;;;4346814;32;20086;-70
2021/07/25 11:37:02;;;;;;;1.15;1.05;;;23.90;31.60;;;;;;4321324;33;20154;-71
2021/07/25 11:39:32;;;;;;;1.52;1.10;;;23.90;32.60;;;;;;4321426;33;20101;-69
2021/07/25 11:42:00;;;;;;;1.98;1.15;;;23.90;31.20;;;;;;4334079;33;20086;-69
2021/07/25 11:44:29;;;;;;;2.47;1.27;;;24.50;32.40;;;;;;4333261;33;20082;-70
2021/07/25 11:47:00;;;;;;;2.08;1.27;;;24.80;30.70;;;;;;4334142;33;20102;-70
2021/07/25 11:49:36;;;;;;;1.27;1.10;;;24.10;30.90;;;;;;4333939;33;20086;-68
2021/07/25 11:52:10;;;;;;;1.52;1.20;;;23.60;30.90;;;;;;4334696;33;20598;-70
2021/07/25 11:54:39;;;;;;;1.85;1.42;;;23.40;32.10;;;;;;4346272;32;20083;-70
2021/07/25 11:57:21;;;;;;;1.62;1.40;;;23.10;33.30;;;;;;4333894;33;20548;-69
2021/07/25 11:59:59;;;;;;;2.42;1.50;;;23.60;32.10;;;;;;4344188;32;20071;-69
2021/07/25 12:02:27;;;;;;;2.33;1.20;;;23.70;33.10;;;;;;4336917;32;20074;-69
2021/07/25 12:04:55;;;;;;;1.73;1.48;;;23.60;33.80;;;;;;4348535;32;20074;-70
2021/07/25 12:07:21;;;;;;;1.92;1.30;;;23.70;33.70;;;;;;4324531;32;20067;-70
2021/07/25 12:09:53;;;;;;;1.52;1.27;;;23.80;32.50;;;;;;4360545;32;20059;-70
2021/07/25 12:12:28;;;;;;;1.30;1.20;;;24.10;32.60;;;;;;4360531;32;20106;-70
2021/07/25 12:15:01;;;;;;;1.83;1.00;;;24.30;31.60;;;;;;4348888;32;20142;-70
2021/07/25 12:17:52;;;;;;;2.10;1.30;;;24.00;32.20;;;;;;4347922;32;20093;-69
2021/07/25 12:20:28;;;;;;;2.08;1.45;;;23.90;33.00;;;;;;4348671;32;20075;-69
2021/07/25 12:23:01;;;;;;;2.55;1.40;;;23.50;33.90;;;;;;4361560;32;20163;-71
2021/07/25 12:25:59;;;;;;;2.17;1.40;;;23.30;34.70;;;;;;4355301;32;20473;-70
2021/07/25 12:28:25;;;;;;;2.92;1.40;;;23.20;34.50;;;;;;4362873;32;20078;-69
2021/07/25 12:30:57;;;;;;;1.42;1.23;;;23.60;34.10;;;;;;4348252;32;20093;-70
2021/07/25 12:33:31;;;;;;;1.67;1.30;;;23.90;34.00;;;;;;4336640;32;20595;-70
2021/07/25 12:36:11;;;;;;;2.25;1.45;;;24.30;32.00;;;;;;4336774;32;20070;-70
2021/07/25 12:38:37;;;;;;;2.10;1.55;;;23.40;33.70;;;;;;4360094;32;20074;-70
2021/07/25 12:41:03;;;;;;;4.00;1.80;;;23.50;33.80;;;;;;4360143;32;20169;-70
2021/07/25 12:43:30;;;;;;;1.90;1.42;;;23.40;34.20;;;;;;4347920;32;20089;-69
2021/07/25 12:45:57;;;;;;;1.65;1.50;;;24.20;32.80;;;;;;4335378;32;20082;-71
2021/07/25 12:48:28;;;;;;;2.05;1.40;;;24.30;31.90;;;;;;4335464;32;20141;-70
2021/07/25 12:54:02;;;;;;;2.87;1.50;;;23.60;32.70;;;;;;4347912;32;20224;-70
2021/07/25 12:56:33;;;;;;;1.73;1.45;;;23.80;32.10;;;;;;4358441;32;20101;-68
2021/07/25 12:59:10;;;;;;;1.60;1.10;;;23.60;32.30;;;;;;4344830;33;20089;-69
2021/07/25 13:04:10;;;;;;;1.40;1.30;;;23.70;33.90;;;;;;4333299;33;20151;-70
2021/07/25 13:06:42;;;;;;;2.22;1.80;;;23.40;32.90;;;;;;4320850;33;20059;-71
2021/07/25 13:09:17;;;;;;;2.62;1.50;;;23.20;35.80;;;;;;4321716;33;20067;-70
2021/07/25 13:11:44;;;;;;;1.40;1.30;;;23.20;35.60;;;;;;4322550;33;20074;-69
2021/07/25 13:14:12;;;;;;;3.55;1.50;;;23.50;35.20;;;;;;4333043;33;20511;-70